Mandoudi — SV3198 — position and weather

sailwx.info

Track history (hours):
 
Tides and Currents Weather Stations Pressure Air Temp Water Temp Dewpoint Dewpoint Depression Visibility Wind Speed Wind Dir Waves Ship Positions

Mandoudi

Last reported at 2015-Feb-27 16:33 UTC. Time now 2015-Feb-27 16:49 UTC.
Position N 37°58' E 023°37'.

Length 60 m; draft 4.6 m.

Type: Ship (hazmat cat A). MMSI: 237470200.

Date/timePositionNaut miles runAvg speedWind from/ knotsBaromVisibWave heightAir tempDewpointWater temp
2015-Feb-27 16:33N 37°58' E 023°37'0 0.0
2015-Feb-27 15:33N 37°58' E 023°37'0 0.0
2015-Feb-27 14:33N 37°58' E 023°37'1 1.0
2015-Feb-27 13:33N 37°57' E 023°36'2 1.8
2015-Feb-27 12:33N 37°57' E 023°38'0 0.0
2015-Feb-27 11:33N 37°57' E 023°38'0 0.0
2015-Feb-27 10:33N 37°57' E 023°38'0 0.1
2015-Feb-27 09:33N 37°57' E 023°38'0 0.3
2015-Feb-27 08:33N 37°57' E 023°38'0 0.0
2015-Feb-27 07:33N 37°57' E 023°38'0 0.0
2015-Feb-27 06:33N 37°57' E 023°38'0 0.4
2015-Feb-27 05:33N 37°57' E 023°38'1 0.7
2015-Feb-27 04:33N 37°56' E 023°37'7 6.8
2015-Feb-27 03:33N 38°01' E 023°31'0 0.0
2015-Feb-27 02:33N 38°01' E 023°31'0 0.1
2015-Feb-27 01:33N 38°01' E 023°31'0 0.0
2015-Feb-27 00:33N 38°01' E 023°31'0 0.0
2015-Feb-26 23:33N 38°01' E 023°31'0 0.1
2015-Feb-26 22:33N 38°01' E 023°31'0 0.1
2015-Feb-26 21:33N 38°01' E 023°31'0 0.0
2015-Feb-26 20:33N 38°01' E 023°31'1 1.1
2015-Feb-26 19:33N 38°02' E 023°31'0 0.0
2015-Feb-26 18:32N 38°02' E 023°31'0 0.0
2015-Feb-26 17:32N 38°02' E 023°31'0 0.0
2015-Feb-26 16:33N 38°02' E 023°31'0 0.0
2015-Feb-26 15:33N 38°02' E 023°31'0 0.0
2015-Feb-26 14:33N 38°02' E 023°31'1 1.0
2015-Feb-26 13:33N 38°02' E 023°32'0 0.0
2015-Feb-26 12:33N 38°02' E 023°32'0 0.1
2015-Feb-26 11:33N 38°02' E 023°32'0 0.1
2015-Feb-26 10:33N 38°02' E 023°32'3 3.3
2015-Feb-26 09:33N 37°59' E 023°33'2 1.7
2015-Feb-26 08:33N 37°57' E 023°34'4 3.6
2015-Feb-26 07:33N 37°57' E 023°38'0 0.1
2015-Feb-26 06:33N 37°57' E 023°38'0 0.0
2015-Feb-26 05:31N 37°57' E 023°38'2 2.3
2015-Feb-26 04:28N 37°57' E 023°35'5 1.5
2015-Feb-26 01:16N 38°01' E 023°32'0 0.0
2015-Feb-26 00:33N 38°01' E 023°32'0 0.0
2015-Feb-25 23:33N 38°01' E 023°32'0 0.0
2015-Feb-25 22:33N 38°01' E 023°32'0 0.0
2015-Feb-25 21:33N 38°01' E 023°32'0 0.0
2015-Feb-25 20:33N 38°01' E 023°32'1 1.1
2015-Feb-25 19:15N 38°02' E 023°31'0 0.0
2015-Feb-25 18:25N 38°02' E 023°31'0 0.0
2015-Feb-25 17:32N 38°02' E 023°31'0 0.0
2015-Feb-25 16:33N 38°02' E 023°31'1 0.6
2015-Feb-25 15:33N 38°02' E 023°31'6 6.5
2015-Feb-25 14:33N 37°57' E 023°36'1 1.4
2015-Feb-25 13:33N 37°56' E 023°38'0 0.0
2015-Feb-25 12:33N 37°56' E 023°38'0 0.0
2015-Feb-25 11:33N 37°56' E 023°38'0 0.0
2015-Feb-25 10:33N 37°56' E 023°38'0 0.5
2015-Feb-25 09:33N 37°57' E 023°38'0 0.0
2015-Feb-25 08:33N 37°57' E 023°38'0 0.0
2015-Feb-25 07:33N 37°57' E 023°38'2 1.9
2015-Feb-25 06:33N 37°57' E 023°36'1 0.8
2015-Feb-25 05:33N 37°58' E 023°37'0 0.0
2015-Feb-25 04:33N 37°58' E 023°37'0 0.0
2015-Feb-25 03:33N 37°58' E 023°37'0 0.0
2015-Feb-25 02:33N 37°58' E 023°37'0 0.0
2015-Feb-25 01:33N 37°58' E 023°37'0 0.0
2015-Feb-25 00:33N 37°58' E 023°37'0 0.0
2015-Feb-24 23:33N 37°58' E 023°37'0 0.0
2015-Feb-24 22:33N 37°58' E 023°37'0 0.0
2015-Feb-24 21:33N 37°58' E 023°37'0 0.0
2015-Feb-24 20:33N 37°58' E 023°37'0 0.0
2015-Feb-24 19:33N 37°58' E 023°37'0 0.0
2015-Feb-24 18:33N 37°58' E 023°37'0 0.0
2015-Feb-24 17:33N 37°58' E 023°37'0 0.0
2015-Feb-24 16:33N 37°58' E 023°37'3 3.3
2015-Feb-24 15:33N 37°58' E 023°33'4 4.0
2015-Feb-24 14:33N 38°02' E 023°31'0 0.0
2015-Feb-24 13:33N 38°02' E 023°31'0 0.0
2015-Feb-24 12:33N 38°02' E 023°31'0 0.0
2015-Feb-24 11:33N 38°02' E 023°31'0 0.0
2015-Feb-24 10:33N 38°02' E 023°31'0 0.3
2015-Feb-24 09:33N 38°02' E 023°31'0 0.4
2015-Feb-24 08:33N 38°02' E 023°32'0 0.0
2015-Feb-24 07:32N 38°02' E 023°32'6 5.9
2015-Feb-24 06:33N 37°58' E 023°37'0 0.1
2015-Feb-24 05:33N 37°58' E 023°37'0 0.0
2015-Feb-24 04:33N 37°58' E 023°37'0 0.0
2015-Feb-24 03:33N 37°58' E 023°37'0 0.0
2015-Feb-24 02:33N 37°58' E 023°37'0 0.0
2015-Feb-24 01:33N 37°58' E 023°37'0 0.0
2015-Feb-24 00:33N 37°58' E 023°37'0 0.0
2015-Feb-23 23:33N 37°58' E 023°37'0 0.0
2015-Feb-23 22:33N 37°58' E 023°37'0 0.0
2015-Feb-23 21:33N 37°58' E 023°37'0 0.0
2015-Feb-23 20:33N 37°58' E 023°37'0 0.0
2015-Feb-23 19:33N 37°58' E 023°37'0 0.0
2015-Feb-23 18:33N 37°58' E 023°37'0 0.0
2015-Feb-23 17:33N 37°58' E 023°37'0 0.0
2015-Feb-23 16:33N 37°58' E 023°37'0 0.0
2015-Feb-23 15:33N 37°58' E 023°37'0 0.0
2015-Feb-23 14:33N 37°58' E 023°37'0 0.0
2015-Feb-23 13:33N 37°58' E 023°37'0 0.2
2015-Feb-23 12:33N 37°57' E 023°36'2 1.6
2015-Feb-23 11:33N 37°57' E 023°38'0 0.0
2015-Feb-23 10:33N 37°57' E 023°38'0 0.1
2015-Feb-23 09:33N 37°57' E 023°38'0 0.0
2015-Feb-23 08:33N 37°57' E 023°38'0 0.0
2015-Feb-23 07:33N 37°57' E 023°38'0 0.0
2015-Feb-23 06:33N 37°57' E 023°38'2 2.2
2015-Feb-23 05:33N 37°57' E 023°36'6 5.7
2015-Feb-23 04:33N 38°01' E 023°31'0 0.0
2015-Feb-23 03:33N 38°01' E 023°31'0 0.0
2015-Feb-23 02:33N 38°01' E 023°31'0 0.0
2015-Feb-23 01:33N 38°01' E 023°31'1 0.8
2015-Feb-23 00:31N 38°02' E 023°31'0 0.0
2015-Feb-22 23:33N 38°02' E 023°31'0 0.0
2015-Feb-22 22:32N 38°02' E 023°31'0 0.0
2015-Feb-22 21:33N 38°02' E 023°31'0 0.0
2015-Feb-22 20:33N 38°02' E 023°31'0 0.0
2015-Feb-22 19:30N 38°02' E 023°31'0 0.0
2015-Feb-22 18:33N 38°02' E 023°31'0 0.0
2015-Feb-22 17:33N 38°02' E 023°31'0 0.0
2015-Feb-22 16:33N 38°02' E 023°31'6 6.2
2015-Feb-22 15:33N 37°57' E 023°35'1 1.4
2015-Feb-22 14:33N 37°58' E 023°37'0 0.0
2015-Feb-22 13:33N 37°58' E 023°37'0 0.0
2015-Feb-22 12:33N 37°58' E 023°37'0 0.0
2015-Feb-22 11:33N 37°58' E 023°37'0 0.0
2015-Feb-22 10:33N 37°58' E 023°37'0 0.0
2015-Feb-22 09:33N 37°58' E 023°37'0 0.0
2015-Feb-22 08:33N 37°58' E 023°37'0 0.0
2015-Feb-22 07:33N 37°58' E 023°37'0 0.0
2015-Feb-22 06:33N 37°58' E 023°37'0 0.0
2015-Feb-22 05:33N 37°58' E 023°37'0 0.0
2015-Feb-22 04:33N 37°58' E 023°37'0 0.0
2015-Feb-22 03:33N 37°58' E 023°37'0 0.0
2015-Feb-22 02:33N 37°58' E 023°37'0 0.0
2015-Feb-22 01:33N 37°58' E 023°37'0 0.0
2015-Feb-22 00:33N 37°58' E 023°37'0 0.0
2015-Feb-21 23:33N 37°58' E 023°37'0 0.0
2015-Feb-21 22:33N 37°58' E 023°37'0 0.0
2015-Feb-21 21:33N 37°58' E 023°37'0 0.0
2015-Feb-21 20:33N 37°58' E 023°37'1 1.4
2015-Feb-21 19:33N 37°57' E 023°38'0 0.0
2015-Feb-21 18:33N 37°57' E 023°38'0 0.0
2015-Feb-21 17:33N 37°57' E 023°38'0 0.0
2015-Feb-21 16:33N 37°57' E 023°38'0 0.1
2015-Feb-21 15:33N 37°57' E 023°38'0 0.0
2015-Feb-21 14:33N 37°57' E 023°38'0 0.0
2015-Feb-21 13:33N 37°57' E 023°38'0 0.1
2015-Feb-21 12:33N 37°57' E 023°38'0 0.1
2015-Feb-21 11:33N 37°57' E 023°38'0 0.2
2015-Feb-21 10:33N 37°57' E 023°38'0 0.0
2015-Feb-21 09:33N 37°57' E 023°38'0 0.0
2015-Feb-21 08:33N 37°57' E 023°38'0 0.0
2015-Feb-21 07:33N 37°57' E 023°38'0 0.0
2015-Feb-21 06:33N 37°57' E 023°38'2 2.0
2015-Feb-21 05:33N 37°57' E 023°36'6 5.8
2015-Feb-21 04:33N 38°02' E 023°31'0 0.1
2015-Feb-21 03:33N 38°02' E 023°31'0 0.0
2015-Feb-21 02:29N 38°02' E 023°31'0 0.0
2015-Feb-21 01:33N 38°02' E 023°31'0 0.0
2015-Feb-21 00:33N 38°02' E 023°31'0 0.0
2015-Feb-20 23:32N 38°02' E 023°31'0 0.0
2015-Feb-20 22:33N 38°02' E 023°31'0 0.0
2015-Feb-20 21:31N 38°02' E 023°31'0 0.0
2015-Feb-20 20:33N 38°02' E 023°31'0 0.0
2015-Feb-20 19:33N 38°02' E 023°31'1 0.7
2015-Feb-20 18:33N 38°02' E 023°31'0 0.0
2015-Feb-20 17:33N 38°02' E 023°31'0 0.0
2015-Feb-20 16:33N 38°02' E 023°31'0 0.0
2015-Feb-20 15:33N 38°02' E 023°31'6 1.9
2015-Feb-20 12:19N 37°57' E 023°35'3 3.3
2015-Feb-20 11:33N 37°57' E 023°38'0 0.0
2015-Feb-20 10:33N 37°57' E 023°38'0 0.0
2015-Feb-20 09:32N 37°57' E 023°38'0 0.0
2015-Feb-20 08:33N 37°57' E 023°38'0 0.4
2015-Feb-20 07:33N 37°56' E 023°38'1 1.5
2015-Feb-20 06:33N 37°58' E 023°37'0 0.0
2015-Feb-20 05:33N 37°58' E 023°37'0 0.0
2015-Feb-20 04:33N 37°58' E 023°37'0 0.0
2015-Feb-20 03:33N 37°58' E 023°37'0 0.0
2015-Feb-20 02:33N 37°58' E 023°37'0 0.0
2015-Feb-20 01:33N 37°58' E 023°37'0 0.0
2015-Feb-20 00:33N 37°58' E 023°37'0 0.0
2015-Feb-19 23:33N 37°58' E 023°37'0 0.0
2015-Feb-19 22:33N 37°58' E 023°37'0 0.0
2015-Feb-19 21:33N 37°58' E 023°37'0 0.0
2015-Feb-19 20:33N 37°58' E 023°37'0 0.0
2015-Feb-19 19:33N 37°58' E 023°37'0 0.0
2015-Feb-19 18:33N 37°58' E 023°37'0 0.0
2015-Feb-19 17:33N 37°58' E 023°37'0 0.3
2015-Feb-19 16:33N 37°57' E 023°36'8 8.1
2015-Feb-19 15:33N 37°52' E 023°28'6 5.9
2015-Feb-19 14:33N 37°58' E 023°26'6 5.9
2015-Feb-19 13:33N 38°02' E 023°31'0 0.1
2015-Feb-19 12:32N 38°02' E 023°31'0 0.0
2015-Feb-19 11:31N 38°02' E 023°31'0 0.0
2015-Feb-19 10:33N 38°02' E 023°31'0 0.0
2015-Feb-19 09:32N 38°02' E 023°31'0 0.0
2015-Feb-19 08:33N 38°02' E 023°31'0 0.0
2015-Feb-19 07:32N 38°02' E 023°31'0 0.1
2015-Feb-19 06:33N 38°02' E 023°31'1 0.8
2015-Feb-19 05:33N 38°02' E 023°31'6 5.8
2015-Feb-19 04:33N 37°58' E 023°37'0 0.0
2015-Feb-19 03:33N 37°58' E 023°37'0 0.0
2015-Feb-19 02:33N 37°58' E 023°37'0 0.0
2015-Feb-19 01:33N 37°58' E 023°37'0 0.0
2015-Feb-19 00:33N 37°58' E 023°37'0 0.0
2015-Feb-18 23:33N 37°58' E 023°37'0 0.0
2015-Feb-18 22:33N 37°58' E 023°37'0 0.0
2015-Feb-18 21:33N 37°58' E 023°37'0 0.0
2015-Feb-18 20:33N 37°58' E 023°37'0 0.0
2015-Feb-18 19:33N 37°58' E 023°37'0 0.0
2015-Feb-18 18:33N 37°58' E 023°37'0 0.0
2015-Feb-18 17:33N 37°58' E 023°37'0 0.0
2015-Feb-18 16:33N 37°58' E 023°37'0 0.0
2015-Feb-18 15:33N 37°58' E 023°37'0 0.0
2015-Feb-18 14:33N 37°58' E 023°37'1 1.4
2015-Feb-18 13:33N 37°56' E 023°38'0 0.0
2015-Feb-18 12:33N 37°56' E 023°38'0 0.0
2015-Feb-18 11:33N 37°56' E 023°38'0 0.0
2015-Feb-18 10:33N 37°56' E 023°38'0 0.0
2015-Feb-18 09:33N 37°56' E 023°38'0 0.0
2015-Feb-18 08:33N 37°56' E 023°38'0 0.0
2015-Feb-18 07:33N 37°56' E 023°38'2 1.6
2015-Feb-18 06:32N 37°57' E 023°36'1 0.1
2015-Feb-18 01:15N 37°58' E 023°37'0 0.0
2015-Feb-18 00:33N 37°58' E 023°37'0 0.0
2015-Feb-17 23:33N 37°58' E 023°37'0 0.0
2015-Feb-17 22:33N 37°58' E 023°37'0 0.0
2015-Feb-17 21:33N 37°58' E 023°37'0 0.0
2015-Feb-17 20:33N 37°58' E 023°37'0 0.0
2015-Feb-17 19:33N 37°58' E 023°37'0 0.0
2015-Feb-17 17:33N 37°58' E 023°37'0 0.0
2015-Feb-17 16:33N 37°58' E 023°37'  
Track history (hours):
 
Tides and Currents Weather Stations Pressure Air Temp Water Temp Dewpoint Dewpoint Depression Visibility Wind Speed Wind Dir Waves Ship Positions

Mandoudi

Last reported at 2015-Feb-27 16:33 UTC. Time now 2015-Feb-27 16:49 UTC.
Position N 37°58' E 023°37'.

Length 60 m; draft 4.6 m.

Type: Ship (hazmat cat A). MMSI: 237470200.

Date/timePositionNaut miles runAvg speedWind from/ knotsBaromVisibWave heightAir tempDewpointWater temp
2015-Feb-27 16:33N 37°58' E 023°37'0 0.0
2015-Feb-27 15:33N 37°58' E 023°37'0 0.0
2015-Feb-27 14:33N 37°58' E 023°37'1 1.0
2015-Feb-27 13:33N 37°57' E 023°36'2 1.8
2015-Feb-27 12:33N 37°57' E 023°38'0 0.0
2015-Feb-27 11:33N 37°57' E 023°38'0 0.0
2015-Feb-27 10:33N 37°57' E 023°38'0 0.1
2015-Feb-27 09:33N 37°57' E 023°38'0 0.3
2015-Feb-27 08:33N 37°57' E 023°38'0 0.0
2015-Feb-27 07:33N 37°57' E 023°38'0 0.0
2015-Feb-27 06:33N 37°57' E 023°38'0 0.4
2015-Feb-27 05:33N 37°57' E 023°38'1 0.7
2015-Feb-27 04:33N 37°56' E 023°37'7 6.8
2015-Feb-27 03:33N 38°01' E 023°31'0 0.0
2015-Feb-27 02:33N 38°01' E 023°31'0 0.1
2015-Feb-27 01:33N 38°01' E 023°31'0 0.0
2015-Feb-27 00:33N 38°01' E 023°31'0 0.0
2015-Feb-26 23:33N 38°01' E 023°31'0 0.1
2015-Feb-26 22:33N 38°01' E 023°31'0 0.1
2015-Feb-26 21:33N 38°01' E 023°31'0 0.0
2015-Feb-26 20:33N 38°01' E 023°31'1 1.1
2015-Feb-26 19:33N 38°02' E 023°31'0 0.0
2015-Feb-26 18:32N 38°02' E 023°31'0 0.0
2015-Feb-26 17:32N 38°02' E 023°31'0 0.0
2015-Feb-26 16:33N 38°02' E 023°31'0 0.0
2015-Feb-26 15:33N 38°02' E 023°31'0 0.0
2015-Feb-26 14:33N 38°02' E 023°31'1 1.0
2015-Feb-26 13:33N 38°02' E 023°32'0 0.0
2015-Feb-26 12:33N 38°02' E 023°32'0 0.1
2015-Feb-26 11:33N 38°02' E 023°32'0 0.1
2015-Feb-26 10:33N 38°02' E 023°32'3 3.3
2015-Feb-26 09:33N 37°59' E 023°33'2 1.7
2015-Feb-26 08:33N 37°57' E 023°34'4 3.6
2015-Feb-26 07:33N 37°57' E 023°38'0 0.1
2015-Feb-26 06:33N 37°57' E 023°38'0 0.0
2015-Feb-26 05:31N 37°57' E 023°38'2 2.3
2015-Feb-26 04:28N 37°57' E 023°35'5 1.5
2015-Feb-26 01:16N 38°01' E 023°32'0 0.0
2015-Feb-26 00:33N 38°01' E 023°32'0 0.0
2015-Feb-25 23:33N 38°01' E 023°32'0 0.0
2015-Feb-25 22:33N 38°01' E 023°32'0 0.0
2015-Feb-25 21:33N 38°01' E 023°32'0 0.0
2015-Feb-25 20:33N 38°01' E 023°32'1 1.1
2015-Feb-25 19:15N 38°02' E 023°31'0 0.0
2015-Feb-25 18:25N 38°02' E 023°31'0 0.0
2015-Feb-25 17:32N 38°02' E 023°31'0 0.0
2015-Feb-25 16:33N 38°02' E 023°31'1 0.6
2015-Feb-25 15:33N 38°02' E 023°31'6 6.5
2015-Feb-25 14:33N 37°57' E 023°36'1 1.4
2015-Feb-25 13:33N 37°56' E 023°38'0 0.0
2015-Feb-25 12:33N 37°56' E 023°38'0 0.0
2015-Feb-25 11:33N 37°56' E 023°38'0 0.0
2015-Feb-25 10:33N 37°56' E 023°38'0 0.5
2015-Feb-25 09:33N 37°57' E 023°38'0 0.0
2015-Feb-25 08:33N 37°57' E 023°38'0 0.0
2015-Feb-25 07:33N 37°57' E 023°38'2 1.9
2015-Feb-25 06:33N 37°57' E 023°36'1 0.8
2015-Feb-25 05:33N 37°58' E 023°37'0 0.0
2015-Feb-25 04:33N 37°58' E 023°37'0 0.0
2015-Feb-25 03:33N 37°58' E 023°37'0 0.0
2015-Feb-25 02:33N 37°58' E 023°37'0 0.0
2015-Feb-25 01:33N 37°58' E 023°37'0 0.0
2015-Feb-25 00:33N 37°58' E 023°37'0 0.0
2015-Feb-24 23:33N 37°58' E 023°37'0 0.0
2015-Feb-24 22:33N 37°58' E 023°37'0 0.0
2015-Feb-24 21:33N 37°58' E 023°37'0 0.0
2015-Feb-24 20:33N 37°58' E 023°37'0 0.0
2015-Feb-24 19:33N 37°58' E 023°37'0 0.0
2015-Feb-24 18:33N 37°58' E 023°37'0 0.0
2015-Feb-24 17:33N 37°58' E 023°37'0 0.0
2015-Feb-24 16:33N 37°58' E 023°37'3 3.3
2015-Feb-24 15:33N 37°58' E 023°33'4 4.0
2015-Feb-24 14:33N 38°02' E 023°31'0 0.0
2015-Feb-24 13:33N 38°02' E 023°31'0 0.0
2015-Feb-24 12:33N 38°02' E 023°31'0 0.0
2015-Feb-24 11:33N 38°02' E 023°31'0 0.0
2015-Feb-24 10:33N 38°02' E 023°31'0 0.3
2015-Feb-24 09:33N 38°02' E 023°31'0 0.4
2015-Feb-24 08:33N 38°02' E 023°32'0 0.0
2015-Feb-24 07:32N 38°02' E 023°32'6 5.9
2015-Feb-24 06:33N 37°58' E 023°37'0 0.1
2015-Feb-24 05:33N 37°58' E 023°37'0 0.0
2015-Feb-24 04:33N 37°58' E 023°37'0 0.0
2015-Feb-24 03:33N 37°58' E 023°37'0 0.0
2015-Feb-24 02:33N 37°58' E 023°37'0 0.0
2015-Feb-24 01:33N 37°58' E 023°37'0 0.0
2015-Feb-24 00:33N 37°58' E 023°37'0 0.0
2015-Feb-23 23:33N 37°58' E 023°37'0 0.0
2015-Feb-23 22:33N 37°58' E 023°37'0 0.0
2015-Feb-23 21:33N 37°58' E 023°37'0 0.0
2015-Feb-23 20:33N 37°58' E 023°37'0 0.0
2015-Feb-23 19:33N 37°58' E 023°37'0 0.0
2015-Feb-23 18:33N 37°58' E 023°37'0 0.0
2015-Feb-23 17:33N 37°58' E 023°37'0 0.0
2015-Feb-23 16:33N 37°58' E 023°37'0 0.0
2015-Feb-23 15:33N 37°58' E 023°37'0 0.0
2015-Feb-23 14:33N 37°58' E 023°37'0 0.0
2015-Feb-23 13:33N 37°58' E 023°37'0 0.2
2015-Feb-23 12:33N 37°57' E 023°36'2 1.6
2015-Feb-23 11:33N 37°57' E 023°38'0 0.0
2015-Feb-23 10:33N 37°57' E 023°38'0 0.1
2015-Feb-23 09:33N 37°57' E 023°38'0 0.0
2015-Feb-23 08:33N 37°57' E 023°38'0 0.0
2015-Feb-23 07:33N 37°57' E 023°38'0 0.0
2015-Feb-23 06:33N 37°57' E 023°38'2 2.2
2015-Feb-23 05:33N 37°57' E 023°36'6 5.7
2015-Feb-23 04:33N 38°01' E 023°31'0 0.0
2015-Feb-23 03:33N 38°01' E 023°31'0 0.0
2015-Feb-23 02:33N 38°01' E 023°31'0 0.0
2015-Feb-23 01:33N 38°01' E 023°31'1 0.8
2015-Feb-23 00:31N 38°02' E 023°31'0 0.0
2015-Feb-22 23:33N 38°02' E 023°31'0 0.0
2015-Feb-22 22:32N 38°02' E 023°31'0 0.0
2015-Feb-22 21:33N 38°02' E 023°31'0 0.0
2015-Feb-22 20:33N 38°02' E 023°31'0 0.0
2015-Feb-22 19:30N 38°02' E 023°31'0 0.0
2015-Feb-22 18:33N 38°02' E 023°31'0 0.0
2015-Feb-22 17:33N 38°02' E 023°31'0 0.0
2015-Feb-22 16:33N 38°02' E 023°31'6 6.2
2015-Feb-22 15:33N 37°57' E 023°35'1 1.4
2015-Feb-22 14:33N 37°58' E 023°37'0 0.0
2015-Feb-22 13:33N 37°58' E 023°37'0 0.0
2015-Feb-22 12:33N 37°58' E 023°37'0 0.0
2015-Feb-22 11:33N 37°58' E 023°37'0 0.0
2015-Feb-22 10:33N 37°58' E 023°37'0 0.0
2015-Feb-22 09:33N 37°58' E 023°37'0 0.0
2015-Feb-22 08:33N 37°58' E 023°37'0 0.0
2015-Feb-22 07:33N 37°58' E 023°37'0 0.0
2015-Feb-22 06:33N 37°58' E 023°37'0 0.0
2015-Feb-22 05:33N 37°58' E 023°37'0 0.0
2015-Feb-22 04:33N 37°58' E 023°37'0 0.0
2015-Feb-22 03:33N 37°58' E 023°37'0 0.0
2015-Feb-22 02:33N 37°58' E 023°37'0 0.0
2015-Feb-22 01:33N 37°58' E 023°37'0 0.0
2015-Feb-22 00:33N 37°58' E 023°37'0 0.0
2015-Feb-21 23:33N 37°58' E 023°37'0 0.0
2015-Feb-21 22:33N 37°58' E 023°37'0 0.0
2015-Feb-21 21:33N 37°58' E 023°37'0 0.0
2015-Feb-21 20:33N 37°58' E 023°37'1 1.4
2015-Feb-21 19:33N 37°57' E 023°38'0 0.0
2015-Feb-21 18:33N 37°57' E 023°38'0 0.0
2015-Feb-21 17:33N 37°57' E 023°38'0 0.0
2015-Feb-21 16:33N 37°57' E 023°38'0 0.1
2015-Feb-21 15:33N 37°57' E 023°38'0 0.0
2015-Feb-21 14:33N 37°57' E 023°38'0 0.0
2015-Feb-21 13:33N 37°57' E 023°38'0 0.1
2015-Feb-21 12:33N 37°57' E 023°38'0 0.1
2015-Feb-21 11:33N 37°57' E 023°38'0 0.2
2015-Feb-21 10:33N 37°57' E 023°38'0 0.0
2015-Feb-21 09:33N 37°57' E 023°38'0 0.0
2015-Feb-21 08:33N 37°57' E 023°38'0 0.0
2015-Feb-21 07:33N 37°57' E 023°38'0 0.0
2015-Feb-21 06:33N 37°57' E 023°38'2 2.0
2015-Feb-21 05:33N 37°57' E 023°36'6 5.8
2015-Feb-21 04:33N 38°02' E 023°31'0 0.1
2015-Feb-21 03:33N 38°02' E 023°31'0 0.0
2015-Feb-21 02:29N 38°02' E 023°31'0 0.0
2015-Feb-21 01:33N 38°02' E 023°31'0 0.0
2015-Feb-21 00:33N 38°02' E 023°31'0 0.0
2015-Feb-20 23:32N 38°02' E 023°31'0 0.0
2015-Feb-20 22:33N 38°02' E 023°31'0 0.0
2015-Feb-20 21:31N 38°02' E 023°31'0 0.0
2015-Feb-20 20:33N 38°02' E 023°31'0 0.0
2015-Feb-20 19:33N 38°02' E 023°31'1 0.7
2015-Feb-20 18:33N 38°02' E 023°31'0 0.0
2015-Feb-20 17:33N 38°02' E 023°31'0 0.0
2015-Feb-20 16:33N 38°02' E 023°31'0 0.0
2015-Feb-20 15:33N 38°02' E 023°31'6 1.9
2015-Feb-20 12:19N 37°57' E 023°35'3 3.3
2015-Feb-20 11:33N 37°57' E 023°38'0 0.0
2015-Feb-20 10:33N 37°57' E 023°38'0 0.0
2015-Feb-20 09:32N 37°57' E 023°38'0 0.0
2015-Feb-20 08:33N 37°57' E 023°38'0 0.4
2015-Feb-20 07:33N 37°56' E 023°38'1 1.5
2015-Feb-20 06:33N 37°58' E 023°37'0 0.0
2015-Feb-20 05:33N 37°58' E 023°37'0 0.0
2015-Feb-20 04:33N 37°58' E 023°37'0 0.0
2015-Feb-20 03:33N 37°58' E 023°37'0 0.0
2015-Feb-20 02:33N 37°58' E 023°37'0 0.0
2015-Feb-20 01:33N 37°58' E 023°37'0 0.0
2015-Feb-20 00:33N 37°58' E 023°37'0 0.0
2015-Feb-19 23:33N 37°58' E 023°37'0 0.0
2015-Feb-19 22:33N 37°58' E 023°37'0 0.0
2015-Feb-19 21:33N 37°58' E 023°37'0 0.0
2015-Feb-19 20:33N 37°58' E 023°37'0 0.0
2015-Feb-19 19:33N 37°58' E 023°37'0 0.0
2015-Feb-19 18:33N 37°58' E 023°37'0 0.0
2015-Feb-19 17:33N 37°58' E 023°37'0 0.3
2015-Feb-19 16:33N 37°57' E 023°36'8 8.1
2015-Feb-19 15:33N 37°52' E 023°28'6 5.9
2015-Feb-19 14:33N 37°58' E 023°26'6 5.9
2015-Feb-19 13:33N 38°02' E 023°31'0 0.1
2015-Feb-19 12:32N 38°02' E 023°31'0 0.0
2015-Feb-19 11:31N 38°02' E 023°31'0 0.0
2015-Feb-19 10:33N 38°02' E 023°31'0 0.0
2015-Feb-19 09:32N 38°02' E 023°31'0 0.0
2015-Feb-19 08:33N 38°02' E 023°31'0 0.0
2015-Feb-19 07:32N 38°02' E 023°31'0 0.1
2015-Feb-19 06:33N 38°02' E 023°31'1 0.8
2015-Feb-19 05:33N 38°02' E 023°31'6 5.8
2015-Feb-19 04:33N 37°58' E 023°37'0 0.0
2015-Feb-19 03:33N 37°58' E 023°37'0 0.0
2015-Feb-19 02:33N 37°58' E 023°37'0 0.0
2015-Feb-19 01:33N 37°58' E 023°37'0 0.0
2015-Feb-19 00:33N 37°58' E 023°37'0 0.0
2015-Feb-18 23:33N 37°58' E 023°37'0 0.0
2015-Feb-18 22:33N 37°58' E 023°37'0 0.0
2015-Feb-18 21:33N 37°58' E 023°37'0 0.0
2015-Feb-18 20:33N 37°58' E 023°37'0 0.0
2015-Feb-18 19:33N 37°58' E 023°37'0 0.0
2015-Feb-18 18:33N 37°58' E 023°37'0 0.0
2015-Feb-18 17:33N 37°58' E 023°37'0 0.0
2015-Feb-18 16:33N 37°58' E 023°37'0 0.0
2015-Feb-18 15:33N 37°58' E 023°37'0 0.0
2015-Feb-18 14:33N 37°58' E 023°37'1 1.4
2015-Feb-18 13:33N 37°56' E 023°38'0 0.0
2015-Feb-18 12:33N 37°56' E 023°38'0 0.0
2015-Feb-18 11:33N 37°56' E 023°38'0 0.0
2015-Feb-18 10:33N 37°56' E 023°38'0 0.0
2015-Feb-18 09:33N 37°56' E 023°38'0 0.0
2015-Feb-18 08:33N 37°56' E 023°38'0 0.0
2015-Feb-18 07:33N 37°56' E 023°38'2 1.6
2015-Feb-18 06:32N 37°57' E 023°36'1 0.1
2015-Feb-18 01:15N 37°58' E 023°37'0 0.0
2015-Feb-18 00:33N 37°58' E 023°37'0 0.0
2015-Feb-17 23:33N 37°58' E 023°37'0 0.0
2015-Feb-17 22:33N 37°58' E 023°37'0 0.0
2015-Feb-17 21:33N 37°58' E 023°37'0 0.0
2015-Feb-17 20:33N 37°58' E 023°37'0 0.0
2015-Feb-17 19:33N 37°58' E 023°37'0 0.0
2015-Feb-17 17:33N 37°58' E 023°37'0 0.0
2015-Feb-17 16:33N 37°58' E 023°37'  

Dump ship's entire track history